weather.gov     
National Weather Service

Terminal Aerodrome Forecast
NWS Homepage
This page is being discontinued on March 12, 2014.
The same data is available at this site. Please update your bookmarks.
Thank you, and we apologize for the inconvenience.
Please send an email to SR-SRH.Webmaster@noaa.gov with any concerns.


Current Version
Previous Version:    01  02  03  04  05  06  07  08  09  10  11  12  13  14  15  16  17  18  19  20  21  22  23  24  25  26  27  28  29  30  
   31  32  33  34  35  36  37  38  39  40  41  42  43  
[Printable]
936
FTUS42 KGSP 221735 AAC
TAFGMU
TAF AMD
KGMU 221735Z 2218/2318 05010KT 2SM -DZ BR OVC004
      TEMPO 2218/2222 4SM -DZ BR OVC008
     FM230300 06010KT 2SM -DZ BR OVC002
     FM230600 04008KT 1SM -RADZ BR OVC002
     FM231300 04006KT 1 1/2SM -RADZ BR OVC003
     FM231600 05005KT 2SM -RADZ BR OVC003=


936
FTUS42 KGSP 221735 AAC
TAFGMU
TAF AMD
KGMU 221735Z 2218/2318 05010KT 2SM -DZ BR OVC004
      TEMPO 2218/2222 4SM -DZ BR OVC008
     FM230300 06010KT 2SM -DZ BR OVC002
     FM230600 04008KT 1SM -RADZ BR OVC002
     FM231300 04006KT 1 1/2SM -RADZ BR OVC003
     FM231600 05005KT 2SM -RADZ BR OVC003=




U.S. Dept. of Commerce
NOAA National Weather Service
1325 East West Highway
Silver Spring, MD 20910
E-mail: w-nws.webmaster@noaa.gov
Page last modified: May 16, 2007
NATIONAL WEATHER SERVICE: for Safety, for Work, for Fun - FOR LIFE